sensor_id;sensor_type;location;lat;lon;timestamp;P1;durP1;ratioP1;P2;durP2;ratioP2
18806;SDS011;9531;52.030;4.380;2023-03-01T00:00:03;11.67;;;7.67;;
18806;SDS011;9531;52.030;4.380;2023-03-01T00:02:33;10.13;;;7.03;;
18806;SDS011;9531;52.030;4.380;2023-03-01T00:05:00;10.33;;;7.10;;
18806;SDS011;9531;52.030;4.380;2023-03-01T00:07:28;11.50;;;6.97;;
18806;SDS011;9531;52.030;4.380;2023-03-01T00:09:55;13.17;;;7.30;;
18806;SDS011;9531;52.030;4.380;2023-03-01T00:12:24;15.10;;;7.57;;
18806;SDS011;9531;52.030;4.380;2023-03-01T00:14:52;10.93;;;7.47;;
18806;SDS011;9531;52.030;4.380;2023-03-01T00:17:21;11.23;;;7.00;;
18806;SDS011;9531;52.030;4.380;2023-03-01T00:19:50;11.13;;;7.27;;
18806;SDS011;9531;52.030;4.380;2023-03-01T00:22:18;13.20;;;8.17;;
18806;SDS011;9531;52.030;4.380;2023-03-01T00:24:45;11.63;;;7.00;;
18806;SDS011;9531;52.030;4.380;2023-03-01T00:27:12;11.70;;;7.30;;
18806;SDS011;9531;52.030;4.380;2023-03-01T00:29:41;11.97;;;7.83;;
18806;SDS011;9531;52.030;4.380;2023-03-01T00:32:08;10.33;;;6.57;;
18806;SDS011;9531;52.030;4.380;2023-03-01T00:34:35;13.27;;;7.83;;
18806;SDS011;9531;52.030;4.380;2023-03-01T00:37:04;12.63;;;7.43;;
18806;SDS011;9531;52.030;4.380;2023-03-01T00:39:31;12.90;;;7.00;;
18806;SDS011;9531;52.030;4.380;2023-03-01T00:41:58;12.97;;;7.90;;
18806;SDS011;9531;52.030;4.380;2023-03-01T00:44:29;10.43;;;7.20;;
18806;SDS011;9531;52.030;4.380;2023-03-01T00:46:57;12.20;;;7.53;;
18806;SDS011;9531;52.030;4.380;2023-03-01T00:49:24;12.20;;;7.70;;
18806;SDS011;9531;52.030;4.380;2023-03-01T00:51:53;13.07;;;7.33;;
18806;SDS011;9531;52.030;4.380;2023-03-01T00:54:21;11.40;;;7.50;;
18806;SDS011;9531;52.030;4.380;2023-03-01T00:56:48;11.53;;;7.43;;
18806;SDS011;9531;52.030;4.380;2023-03-01T00:59:15;11.77;;;7.07;;
18806;SDS011;9531;52.030;4.380;2023-03-01T01:01:42;11.60;;;7.40;;
18806;SDS011;9531;52.030;4.380;2023-03-01T01:04:11;13.43;;;7.67;;
18806;SDS011;9531;52.030;4.380;2023-03-01T01:06:41;11.80;;;7.40;;
18806;SDS011;9531;52.030;4.380;2023-03-01T01:09:11;14.97;;;7.73;;
18806;SDS011;9531;52.030;4.380;2023-03-01T01:11:42;11.20;;;7.13;;
18806;SDS011;9531;52.030;4.380;2023-03-01T01:14:10;11.93;;;7.20;;
18806;SDS011;9531;52.030;4.380;2023-03-01T01:16:37;11.67;;;7.47;;
18806;SDS011;9531;52.030;4.380;2023-03-01T01:19:05;14.00;;;7.93;;
18806;SDS011;9531;52.030;4.380;2023-03-01T01:21:34;11.03;;;7.33;;
18806;SDS011;9531;52.030;4.380;2023-03-01T01:24:02;12.00;;;7.67;;
18806;SDS011;9531;52.030;4.380;2023-03-01T01:26:30;13.73;;;8.23;;
18806;SDS011;9531;52.030;4.380;2023-03-01T01:28:59;12.10;;;7.47;;
18806;SDS011;9531;52.030;4.380;2023-03-01T01:31:27;11.60;;;8.00;;
18806;SDS011;9531;52.030;4.380;2023-03-01T01:33:55;13.73;;;7.70;;
18806;SDS011;9531;52.030;4.380;2023-03-01T01:36:23;12.80;;;7.80;;
18806;SDS011;9531;52.030;4.380;2023-03-01T01:38:51;12.30;;;7.57;;
18806;SDS011;9531;52.030;4.380;2023-03-01T01:41:18;11.33;;;8.03;;
18806;SDS011;9531;52.030;4.380;2023-03-01T01:43:47;13.97;;;8.37;;
18806;SDS011;9531;52.030;4.380;2023-03-01T01:46:25;12.90;;;7.97;;
18806;SDS011;9531;52.030;4.380;2023-03-01T01:48:57;12.80;;;8.53;;
18806;SDS011;9531;52.030;4.380;2023-03-01T01:51:27;14.00;;;8.30;;
18806;SDS011;9531;52.030;4.380;2023-03-01T01:54:05;14.43;;;8.50;;
18806;SDS011;9531;52.030;4.380;2023-03-01T01:56:37;14.33;;;8.63;;
18806;SDS011;9531;52.030;4.380;2023-03-01T01:59:08;16.30;;;9.37;;
18806;SDS011;9531;52.030;4.380;2023-03-01T02:01:35;13.53;;;7.87;;
18806;SDS011;9531;52.030;4.380;2023-03-01T02:04:03;15.17;;;9.73;;
18806;SDS011;9531;52.030;4.380;2023-03-01T02:06:32;13.67;;;8.30;;
18806;SDS011;9531;52.030;4.380;2023-03-01T02:09:06;15.37;;;9.07;;
18806;SDS011;9531;52.030;4.380;2023-03-01T02:11:37;14.20;;;9.43;;
18806;SDS011;9531;52.030;4.380;2023-03-01T02:14:05;16.13;;;9.67;;
18806;SDS011;9531;52.030;4.380;2023-03-01T02:16:38;16.63;;;9.03;;
18806;SDS011;9531;52.030;4.380;2023-03-01T02:19:05;13.80;;;8.97;;
18806;SDS011;9531;52.030;4.380;2023-03-01T02:21:41;14.07;;;9.20;;
18806;SDS011;9531;52.030;4.380;2023-03-01T02:24:18;16.43;;;9.30;;
18806;SDS011;9531;52.030;4.380;2023-03-01T02:26:56;16.17;;;9.23;;
18806;SDS011;9531;52.030;4.380;2023-03-01T02:29:26;14.03;;;9.17;;
18806;SDS011;9531;52.030;4.380;2023-03-01T02:31:54;15.20;;;8.97;;
18806;SDS011;9531;52.030;4.380;2023-03-01T02:34:24;18.80;;;10.10;;
18806;SDS011;9531;52.030;4.380;2023-03-01T02:36:57;17.90;;;9.40;;
18806;SDS011;9531;52.030;4.380;2023-03-01T02:39:31;16.77;;;9.00;;
18806;SDS011;9531;52.030;4.380;2023-03-01T02:42:03;16.73;;;8.83;;
18806;SDS011;9531;52.030;4.380;2023-03-01T02:44:33;16.67;;;9.33;;
18806;SDS011;9531;52.030;4.380;2023-03-01T02:47:01;15.00;;;9.20;;
18806;SDS011;9531;52.030;4.380;2023-03-01T02:49:32;19.50;;;10.43;;
18806;SDS011;9531;52.030;4.380;2023-03-01T02:55:02;14.27;;;8.43;;
18806;SDS011;9531;52.030;4.380;2023-03-01T02:57:33;15.20;;;9.63;;
18806;SDS011;9531;52.030;4.380;2023-03-01T03:00:04;18.97;;;10.90;;
18806;SDS011;9531;52.030;4.380;2023-03-01T03:02:34;18.00;;;10.53;;
18806;SDS011;9531;52.030;4.380;2023-03-01T03:05:06;19.10;;;10.50;;
18806;SDS011;9531;52.030;4.380;2023-03-01T03:07:36;18.10;;;10.77;;
18806;SDS011;9531;52.030;4.380;2023-03-01T03:10:06;17.77;;;10.63;;
18806;SDS011;9531;52.030;4.380;2023-03-01T03:12:36;19.57;;;10.23;;
18806;SDS011;9531;52.030;4.380;2023-03-01T03:15:06;20.53;;;9.63;;
18806;SDS011;9531;52.030;4.380;2023-03-01T03:17:35;16.70;;;9.90;;
18806;SDS011;9531;52.030;4.380;2023-03-01T03:20:02;19.57;;;10.87;;
18806;SDS011;9531;52.030;4.380;2023-03-01T03:22:31;18.47;;;10.13;;
18806;SDS011;9531;52.030;4.380;2023-03-01T03:24:59;18.10;;;9.93;;
18806;SDS011;9531;52.030;4.380;2023-03-01T03:27:28;16.63;;;9.60;;
18806;SDS011;9531;52.030;4.380;2023-03-01T03:29:57;17.87;;;10.20;;
18806;SDS011;9531;52.030;4.380;2023-03-01T03:32:25;19.90;;;11.37;;
18806;SDS011;9531;52.030;4.380;2023-03-01T03:34:52;18.07;;;9.63;;
18806;SDS011;9531;52.030;4.380;2023-03-01T03:37:19;16.60;;;10.33;;
18806;SDS011;9531;52.030;4.380;2023-03-01T03:40:04;18.77;;;11.13;;
18806;SDS011;9531;52.030;4.380;2023-03-01T03:42:40;18.17;;;10.10;;
18806;SDS011;9531;52.030;4.380;2023-03-01T03:45:08;18.97;;;10.27;;
18806;SDS011;9531;52.030;4.380;2023-03-01T03:47:37;19.03;;;11.20;;
18806;SDS011;9531;52.030;4.380;2023-03-01T03:50:05;21.73;;;11.60;;
18806;SDS011;9531;52.030;4.380;2023-03-01T03:52:32;19.10;;;11.30;;
18806;SDS011;9531;52.030;4.380;2023-03-01T03:54:59;17.03;;;10.40;;
18806;SDS011;9531;52.030;4.380;2023-03-01T03:57:27;18.17;;;10.37;;
18806;SDS011;9531;52.030;4.380;2023-03-01T03:59:54;20.83;;;11.80;;
18806;SDS011;9531;52.030;4.380;2023-03-01T04:02:21;22.73;;;12.03;;
18806;SDS011;9531;52.030;4.380;2023-03-01T04:04:50;18.40;;;9.87;;
18806;SDS011;9531;52.030;4.380;2023-03-01T04:07:18;18.50;;;10.43;;
18806;SDS011;9531;52.030;4.380;2023-03-01T04:09:45;16.63;;;9.87;;
18806;SDS011;9531;52.030;4.380;2023-03-01T04:12:12;21.57;;;11.73;;
18806;SDS011;9531;52.030;4.380;2023-03-01T04:14:39;23.80;;;11.57;;
18806;SDS011;9531;52.030;4.380;2023-03-01T04:17:07;28.37;;;12.20;;
18806;SDS011;9531;52.030;4.380;2023-03-01T04:19:34;19.17;;;11.10;;
18806;SDS011;9531;52.030;4.380;2023-03-01T04:22:02;22.20;;;12.20;;
18806;SDS011;9531;52.030;4.380;2023-03-01T04:24:34;22.43;;;12.10;;
18806;SDS011;9531;52.030;4.380;2023-03-01T04:27:02;22.10;;;12.70;;
18806;SDS011;9531;52.030;4.380;2023-03-01T04:29:29;24.60;;;12.63;;
18806;SDS011;9531;52.030;4.380;2023-03-01T04:31:57;21.77;;;11.27;;
18806;SDS011;9531;52.030;4.380;2023-03-01T04:34:25;23.17;;;12.73;;
18806;SDS011;9531;52.030;4.380;2023-03-01T04:36:52;22.30;;;11.37;;
18806;SDS011;9531;52.030;4.380;2023-03-01T04:39:21;28.83;;;13.87;;
18806;SDS011;9531;52.030;4.380;2023-03-01T04:41:48;28.33;;;13.57;;
18806;SDS011;9531;52.030;4.380;2023-03-01T04:44:15;27.10;;;13.60;;
18806;SDS011;9531;52.030;4.380;2023-03-01T04:46:42;34.33;;;15.27;;
18806;SDS011;9531;52.030;4.380;2023-03-01T04:49:09;30.53;;;13.37;;
18806;SDS011;9531;52.030;4.380;2023-03-01T04:51:36;23.07;;;13.23;;
18806;SDS011;9531;52.030;4.380;2023-03-01T04:54:04;27.40;;;13.13;;
18806;SDS011;9531;52.030;4.380;2023-03-01T04:56:35;25.10;;;13.07;;
18806;SDS011;9531;52.030;4.380;2023-03-01T04:59:03;26.63;;;12.83;;
18806;SDS011;9531;52.030;4.380;2023-03-01T05:01:30;25.30;;;12.90;;
18806;SDS011;9531;52.030;4.380;2023-03-01T05:03:58;28.47;;;12.20;;
18806;SDS011;9531;52.030;4.380;2023-03-01T05:06:31;23.50;;;13.23;;
18806;SDS011;9531;52.030;4.380;2023-03-01T05:08:59;29.03;;;13.03;;
18806;SDS011;9531;52.030;4.380;2023-03-01T05:11:26;18.30;;;11.87;;
18806;SDS011;9531;52.030;4.380;2023-03-01T05:14:02;24.87;;;11.87;;
18806;SDS011;9531;52.030;4.380;2023-03-01T05:16:29;21.40;;;12.23;;
18806;SDS011;9531;52.030;4.380;2023-03-01T05:18:56;22.17;;;12.10;;
18806;SDS011;9531;52.030;4.380;2023-03-01T05:21:24;22.57;;;11.00;;
18806;SDS011;9531;52.030;4.380;2023-03-01T05:23:51;20.23;;;10.90;;
18806;SDS011;9531;52.030;4.380;2023-03-01T05:26:21;20.80;;;11.47;;
18806;SDS011;9531;52.030;4.380;2023-03-01T05:28:53;21.40;;;12.03;;
18806;SDS011;9531;52.030;4.380;2023-03-01T05:31:25;21.30;;;11.00;;
18806;SDS011;9531;52.030;4.380;2023-03-01T05:33:52;19.10;;;11.40;;
18806;SDS011;9531;52.030;4.380;2023-03-01T05:36:19;18.27;;;11.33;;
18806;SDS011;9531;52.030;4.380;2023-03-01T05:38:46;24.33;;;12.23;;
18806;SDS011;9531;52.030;4.380;2023-03-01T05:41:14;19.57;;;10.53;;
18806;SDS011;9531;52.030;4.380;2023-03-01T05:43:42;21.50;;;11.73;;
18806;SDS011;9531;52.030;4.380;2023-03-01T05:46:10;19.60;;;11.80;;
18806;SDS011;9531;52.030;4.380;2023-03-01T05:48:39;20.17;;;12.27;;
18806;SDS011;9531;52.030;4.380;2023-03-01T05:51:09;20.83;;;11.90;;
18806;SDS011;9531;52.030;4.380;2023-03-01T05:53:37;24.10;;;12.73;;
18806;SDS011;9531;52.030;4.380;2023-03-01T05:56:04;17.03;;;10.60;;
18806;SDS011;9531;52.030;4.380;2023-03-01T05:58:31;17.07;;;10.30;;
18806;SDS011;9531;52.030;4.380;2023-03-01T06:00:59;28.37;;;12.53;;
18806;SDS011;9531;52.030;4.380;2023-03-01T06:03:26;18.47;;;11.50;;
18806;SDS011;9531;52.030;4.380;2023-03-01T06:05:56;15.53;;;10.20;;
18806;SDS011;9531;52.030;4.380;2023-03-01T06:08:23;18.93;;;11.13;;
18806;SDS011;9531;52.030;4.380;2023-03-01T06:10:52;19.23;;;11.70;;
18806;SDS011;9531;52.030;4.380;2023-03-01T06:13:22;22.87;;;12.80;;
18806;SDS011;9531;52.030;4.380;2023-03-01T06:15:50;25.30;;;12.50;;
18806;SDS011;9531;52.030;4.380;2023-03-01T06:18:19;20.70;;;12.40;;
18806;SDS011;9531;52.030;4.380;2023-03-01T06:20:51;24.80;;;12.47;;
18806;SDS011;9531;52.030;4.380;2023-03-01T06:23:21;17.63;;;11.30;;
18806;SDS011;9531;52.030;4.380;2023-03-01T06:25:48;16.93;;;10.47;;
18806;SDS011;9531;52.030;4.380;2023-03-01T06:28:15;17.13;;;10.63;;
18806;SDS011;9531;52.030;4.380;2023-03-01T06:30:43;18.50;;;10.53;;
18806;SDS011;9531;52.030;4.380;2023-03-01T06:33:11;28.30;;;12.50;;
18806;SDS011;9531;52.030;4.380;2023-03-01T06:35:38;19.40;;;11.47;;
18806;SDS011;9531;52.030;4.380;2023-03-01T06:38:06;22.30;;;11.60;;
18806;SDS011;9531;52.030;4.380;2023-03-01T06:40:41;21.20;;;11.87;;
18806;SDS011;9531;52.030;4.380;2023-03-01T06:43:08;22.50;;;12.27;;
18806;SDS011;9531;52.030;4.380;2023-03-01T06:45:36;19.67;;;11.03;;
18806;SDS011;9531;52.030;4.380;2023-03-01T06:48:03;18.70;;;11.33;;
18806;SDS011;9531;52.030;4.380;2023-03-01T06:50:31;18.83;;;11.53;;
18806;SDS011;9531;52.030;4.380;2023-03-01T06:52:59;20.30;;;11.60;;
18806;SDS011;9531;52.030;4.380;2023-03-01T06:55:26;18.93;;;11.67;;
18806;SDS011;9531;52.030;4.380;2023-03-01T06:57:55;18.30;;;10.90;;
18806;SDS011;9531;52.030;4.380;2023-03-01T07:00:24;15.87;;;10.20;;
18806;SDS011;9531;52.030;4.380;2023-03-01T07:02:51;17.60;;;10.80;;
18806;SDS011;9531;52.030;4.380;2023-03-01T07:05:19;19.63;;;10.50;;
18806;SDS011;9531;52.030;4.380;2023-03-01T07:07:47;18.50;;;10.90;;
18806;SDS011;9531;52.030;4.380;2023-03-01T07:10:16;15.67;;;10.17;;
18806;SDS011;9531;52.030;4.380;2023-03-01T07:12:53;17.67;;;11.10;;
18806;SDS011;9531;52.030;4.380;2023-03-01T07:15:23;17.37;;;11.27;;
18806;SDS011;9531;52.030;4.380;2023-03-01T07:17:52;20.63;;;11.70;;
18806;SDS011;9531;52.030;4.380;2023-03-01T07:20:20;19.73;;;11.67;;
18806;SDS011;9531;52.030;4.380;2023-03-01T07:22:49;22.53;;;13.17;;
18806;SDS011;9531;52.030;4.380;2023-03-01T07:25:17;24.03;;;12.90;;
18806;SDS011;9531;52.030;4.380;2023-03-01T07:27:48;19.40;;;11.30;;
18806;SDS011;9531;52.030;4.380;2023-03-01T07:30:18;23.00;;;12.53;;
18806;SDS011;9531;52.030;4.380;2023-03-01T07:32:46;20.53;;;12.10;;
18806;SDS011;9531;52.030;4.380;2023-03-01T07:35:13;21.37;;;12.97;;
18806;SDS011;9531;52.030;4.380;2023-03-01T07:37:41;23.37;;;13.53;;
18806;SDS011;9531;52.030;4.380;2023-03-01T07:40:08;24.73;;;13.90;;
18806;SDS011;9531;52.030;4.380;2023-03-01T07:42:36;23.77;;;13.37;;
18806;SDS011;9531;52.030;4.380;2023-03-01T07:45:04;25.17;;;14.03;;
18806;SDS011;9531;52.030;4.380;2023-03-01T07:47:34;30.40;;;14.40;;
18806;SDS011;9531;52.030;4.380;2023-03-01T07:50:01;103.40;;;17.90;;
18806;SDS011;9531;52.030;4.380;2023-03-01T07:52:29;142.97;;;21.00;;
18806;SDS011;9531;52.030;4.380;2023-03-01T07:54:56;107.97;;;20.13;;
18806;SDS011;9531;52.030;4.380;2023-03-01T07:57:24;110.60;;;21.73;;
18806;SDS011;9531;52.030;4.380;2023-03-01T07:59:51;64.70;;;21.93;;
18806;SDS011;9531;52.030;4.380;2023-03-01T08:02:18;42.50;;;22.53;;
18806;SDS011;9531;52.030;4.380;2023-03-01T08:04:48;49.53;;;25.60;;
18806;SDS011;9531;52.030;4.380;2023-03-01T08:07:15;42.43;;;23.40;;
18806;SDS011;9531;52.030;4.380;2023-03-01T08:09:42;42.43;;;25.07;;
18806;SDS011;9531;52.030;4.380;2023-03-01T08:12:09;40.30;;;24.07;;
18806;SDS011;9531;52.030;4.380;2023-03-01T08:14:36;26.70;;;16.57;;
18806;SDS011;9531;52.030;4.380;2023-03-01T08:17:04;28.73;;;18.60;;
18806;SDS011;9531;52.030;4.380;2023-03-01T08:19:34;27.75;;;17.58;;
18806;SDS011;9531;52.030;4.380;2023-03-01T08:22:04;20.80;;;13.90;;
18806;SDS011;9531;52.030;4.380;2023-03-01T08:24:31;22.95;;;15.10;;
18806;SDS011;9531;52.030;4.380;2023-03-01T08:26:58;20.20;;;12.30;;
18806;SDS011;9531;52.030;4.380;2023-03-01T08:29:25;17.58;;;12.00;;
18806;SDS011;9531;52.030;4.380;2023-03-01T08:31:52;19.77;;;13.65;;
18806;SDS011;9531;52.030;4.380;2023-03-01T08:34:19;20.17;;;13.82;;
18806;SDS011;9531;52.030;4.380;2023-03-01T08:36:46;21.25;;;14.70;;
18806;SDS011;9531;52.030;4.380;2023-03-01T08:39:16;17.02;;;12.93;;
18806;SDS011;9531;52.030;4.380;2023-03-01T08:41:45;18.48;;;14.30;;
18806;SDS011;9531;52.030;4.380;2023-03-01T08:44:13;17.95;;;12.70;;
18806;SDS011;9531;52.030;4.380;2023-03-01T08:46:42;20.73;;;14.48;;
18806;SDS011;9531;52.030;4.380;2023-03-01T08:49:13;16.13;;;12.93;;
18806;SDS011;9531;52.030;4.380;2023-03-01T08:51:41;15.98;;;11.93;;
18806;SDS011;9531;52.030;4.380;2023-03-01T08:54:09;15.85;;;11.85;;
18806;SDS011;9531;52.030;4.380;2023-03-01T08:56:39;14.45;;;11.25;;
18806;SDS011;9531;52.030;4.380;2023-03-01T08:59:07;16.77;;;12.20;;
18806;SDS011;9531;52.030;4.380;2023-03-01T09:01:36;15.15;;;12.15;;
18806;SDS011;9531;52.030;4.380;2023-03-01T09:04:06;15.40;;;10.57;;
18806;SDS011;9531;52.030;4.380;2023-03-01T09:06:36;12.85;;;10.40;;
18806;SDS011;9531;52.030;4.380;2023-03-01T09:09:04;13.88;;;10.73;;
18806;SDS011;9531;52.030;4.380;2023-03-01T09:11:33;13.35;;;10.32;;
18806;SDS011;9531;52.030;4.380;2023-03-01T09:14:04;13.57;;;10.05;;
18806;SDS011;9531;52.030;4.380;2023-03-01T09:16:31;11.88;;;8.50;;
18806;SDS011;9531;52.030;4.380;2023-03-01T09:19:01;11.50;;;8.65;;
18806;SDS011;9531;52.030;4.380;2023-03-01T09:21:29;10.68;;;8.02;;
18806;SDS011;9531;52.030;4.380;2023-03-01T09:23:56;12.40;;;9.38;;
18806;SDS011;9531;52.030;4.380;2023-03-01T09:26:24;10.40;;;7.90;;
18806;SDS011;9531;52.030;4.380;2023-03-01T09:28:52;10.98;;;8.27;;
18806;SDS011;9531;52.030;4.380;2023-03-01T09:31:23;9.85;;;7.47;;
18806;SDS011;9531;52.030;4.380;2023-03-01T09:33:51;9.07;;;7.38;;
18806;SDS011;9531;52.030;4.380;2023-03-01T09:36:23;8.68;;;7.15;;
18806;SDS011;9531;52.030;4.380;2023-03-01T09:38:52;9.02;;;5.93;;
18806;SDS011;9531;52.030;4.380;2023-03-01T09:41:25;7.13;;;6.15;;
18806;SDS011;9531;52.030;4.380;2023-03-01T09:44:01;7.43;;;6.40;;
18806;SDS011;9531;52.030;4.380;2023-03-01T09:46:40;6.00;;;5.20;;
18806;SDS011;9531;52.030;4.380;2023-03-01T09:49:14;6.40;;;5.20;;
18806;SDS011;9531;52.030;4.380;2023-03-01T09:51:47;6.43;;;4.35;;
18806;SDS011;9531;52.030;4.380;2023-03-01T09:54:22;7.22;;;4.90;;
18806;SDS011;9531;52.030;4.380;2023-03-01T09:56:53;6.20;;;4.50;;
18806;SDS011;9531;52.030;4.380;2023-03-01T09:59:30;5.57;;;4.95;;
18806;SDS011;9531;52.030;4.380;2023-03-01T10:02:14;6.78;;;5.43;;
18806;SDS011;9531;52.030;4.380;2023-03-01T10:04:52;5.65;;;3.95;;
18806;SDS011;9531;52.030;4.380;2023-03-01T10:07:28;7.30;;;5.90;;
18806;SDS011;9531;52.030;4.380;2023-03-01T10:10:04;6.93;;;5.07;;
18806;SDS011;9531;52.030;4.380;2023-03-01T10:12:34;8.10;;;5.40;;
18806;SDS011;9531;52.030;4.380;2023-03-01T10:15:05;5.40;;;4.13;;
18806;SDS011;9531;52.030;4.380;2023-03-01T10:17:41;5.78;;;4.45;;
18806;SDS011;9531;52.030;4.380;2023-03-01T10:20:19;6.20;;;5.60;;
18806;SDS011;9531;52.030;4.380;2023-03-01T10:22:49;7.57;;;4.78;;
18806;SDS011;9531;52.030;4.380;2023-03-01T10:25:20;6.03;;;5.40;;
18806;SDS011;9531;52.030;4.380;2023-03-01T10:28:02;5.75;;;4.90;;
18806;SDS011;9531;52.030;4.380;2023-03-01T10:30:34;7.20;;;5.82;;
18806;SDS011;9531;52.030;4.380;2023-03-01T10:33:07;5.25;;;4.65;;
18806;SDS011;9531;52.030;4.380;2023-03-01T10:35:40;4.82;;;4.28;;
18806;SDS011;9531;52.030;4.380;2023-03-01T10:38:09;5.97;;;4.85;;
18806;SDS011;9531;52.030;4.380;2023-03-01T10:40:49;5.95;;;4.43;;
18806;SDS011;9531;52.030;4.380;2023-03-01T10:43:20;6.38;;;5.45;;
18806;SDS011;9531;52.030;4.380;2023-03-01T10:45:48;6.20;;;5.07;;
18806;SDS011;9531;52.030;4.380;2023-03-01T10:48:17;6.50;;;5.25;;
18806;SDS011;9531;52.030;4.380;2023-03-01T10:50:50;10.15;;;5.95;;
18806;SDS011;9531;52.030;4.380;2023-03-01T10:53:40;5.97;;;4.78;;
18806;SDS011;9531;52.030;4.380;2023-03-01T10:56:09;6.60;;;5.38;;
18806;SDS011;9531;52.030;4.380;2023-03-01T10:58:39;7.28;;;5.25;;
18806;SDS011;9531;52.030;4.380;2023-03-01T11:04:09;8.73;;;5.28;;
18806;SDS011;9531;52.030;4.380;2023-03-01T11:06:38;5.65;;;4.70;;
18806;SDS011;9531;52.030;4.380;2023-03-01T11:09:14;5.63;;;4.78;;
18806;SDS011;9531;52.030;4.380;2023-03-01T11:11:42;5.38;;;4.63;;
18806;SDS011;9531;52.030;4.380;2023-03-01T11:14:13;5.63;;;4.32;;
18806;SDS011;9531;52.030;4.380;2023-03-01T11:16:44;6.22;;;4.57;;
18806;SDS011;9531;52.030;4.380;2023-03-01T11:19:19;5.38;;;4.53;;
18806;SDS011;9531;52.030;4.380;2023-03-01T11:21:52;5.57;;;4.07;;
18806;SDS011;9531;52.030;4.380;2023-03-01T11:24:25;5.63;;;4.68;;
18806;SDS011;9531;52.030;4.380;2023-03-01T11:26:58;5.80;;;4.43;;
18806;SDS011;9531;52.030;4.380;2023-03-01T11:29:30;4.85;;;4.30;;
18806;SDS011;9531;52.030;4.380;2023-03-01T11:32:05;5.78;;;4.05;;
18806;SDS011;9531;52.030;4.380;2023-03-01T11:34:43;5.60;;;3.95;;
18806;SDS011;9531;52.030;4.380;2023-03-01T11:37:26;5.05;;;4.05;;
18806;SDS011;9531;52.030;4.380;2023-03-01T11:40:02;5.85;;;4.80;;
18806;SDS011;9531;52.030;4.380;2023-03-01T11:42:42;5.00;;;4.40;;
18806;SDS011;9531;52.030;4.380;2023-03-01T11:45:19;7.55;;;5.78;;
18806;SDS011;9531;52.030;4.380;2023-03-01T11:47:59;7.00;;;5.00;;
18806;SDS011;9531;52.030;4.380;2023-03-01T11:50:59;5.40;;;4.55;;
18806;SDS011;9531;52.030;4.380;2023-03-01T11:53:39;6.60;;;5.65;;
18806;SDS011;9531;52.030;4.380;2023-03-01T11:56:23;7.68;;;6.05;;
18806;SDS011;9531;52.030;4.380;2023-03-01T11:59:24;7.72;;;5.95;;
18806;SDS011;9531;52.030;4.380;2023-03-01T12:02:14;9.40;;;6.15;;
18806;SDS011;9531;52.030;4.380;2023-03-01T12:05:18;10.18;;;6.45;;
18806;SDS011;9531;52.030;4.380;2023-03-01T12:08:23;6.03;;;5.07;;
18806;SDS011;9531;52.030;4.380;2023-03-01T12:11:01;7.60;;;6.15;;
18806;SDS011;9531;52.030;4.380;2023-03-01T12:13:53;8.10;;;6.32;;
18806;SDS011;9531;52.030;4.380;2023-03-01T12:16:58;8.50;;;6.57;;
18806;SDS011;9531;52.030;4.380;2023-03-01T12:19:47;7.50;;;6.15;;
18806;SDS011;9531;52.030;4.380;2023-03-01T12:22:31;9.50;;;6.90;;
18806;SDS011;9531;52.030;4.380;2023-03-01T12:25:16;7.90;;;6.32;;
18806;SDS011;9531;52.030;4.380;2023-03-01T12:27:55;7.95;;;6.03;;
18806;SDS011;9531;52.030;4.380;2023-03-01T12:33:35;8.77;;;5.75;;
18806;SDS011;9531;52.030;4.380;2023-03-01T12:39:24;7.15;;;5.82;;
18806;SDS011;9531;52.030;4.380;2023-03-01T12:42:08;7.18;;;5.47;;
18806;SDS011;9531;52.030;4.380;2023-03-01T12:44:49;7.78;;;6.20;;
18806;SDS011;9531;52.030;4.380;2023-03-01T12:47:44;8.82;;;6.60;;
18806;SDS011;9531;52.030;4.380;2023-03-01T12:50:24;9.60;;;6.43;;
18806;SDS011;9531;52.030;4.380;2023-03-01T12:52:58;7.75;;;6.30;;
18806;SDS011;9531;52.030;4.380;2023-03-01T12:55:27;7.35;;;6.07;;
18806;SDS011;9531;52.030;4.380;2023-03-01T12:58:03;8.95;;;7.07;;
18806;SDS011;9531;52.030;4.380;2023-03-01T13:00:39;7.07;;;5.88;;
18806;SDS011;9531;52.030;4.380;2023-03-01T13:03:15;7.05;;;6.25;;
18806;SDS011;9531;52.030;4.380;2023-03-01T13:05:56;8.80;;;6.47;;
18806;SDS011;9531;52.030;4.380;2023-03-01T13:08:35;10.73;;;6.93;;
18806;SDS011;9531;52.030;4.380;2023-03-01T13:11:06;9.80;;;7.30;;
18806;SDS011;9531;52.030;4.380;2023-03-01T13:13:44;8.23;;;6.93;;
18806;SDS011;9531;52.030;4.380;2023-03-01T13:16:22;9.38;;;7.35;;
18806;SDS011;9531;52.030;4.380;2023-03-01T13:19:07;7.78;;;6.30;;
18806;SDS011;9531;52.030;4.380;2023-03-01T13:21:40;9.45;;;6.43;;
18806;SDS011;9531;52.030;4.380;2023-03-01T13:27:09;8.85;;;6.47;;
18806;SDS011;9531;52.030;4.380;2023-03-01T13:29:49;9.20;;;6.43;;
18806;SDS011;9531;52.030;4.380;2023-03-01T13:32:22;6.90;;;5.85;;
18806;SDS011;9531;52.030;4.380;2023-03-01T13:34:56;8.52;;;6.03;;
18806;SDS011;9531;52.030;4.380;2023-03-01T13:37:25;6.88;;;4.63;;
18806;SDS011;9531;52.030;4.380;2023-03-01T13:39:54;6.97;;;5.05;;
18806;SDS011;9531;52.030;4.380;2023-03-01T13:42:39;6.40;;;4.63;;
18806;SDS011;9531;52.030;4.380;2023-03-01T13:45:24;6.18;;;4.28;;
18806;SDS011;9531;52.030;4.380;2023-03-01T13:48:01;6.10;;;4.18;;
18806;SDS011;9531;52.030;4.380;2023-03-01T13:50:36;5.47;;;3.67;;
18806;SDS011;9531;52.030;4.380;2023-03-01T13:53:11;4.38;;;3.50;;
18806;SDS011;9531;52.030;4.380;2023-03-01T13:55:44;5.30;;;4.30;;
18806;SDS011;9531;52.030;4.380;2023-03-01T13:58:18;5.97;;;4.40;;
18806;SDS011;9531;52.030;4.380;2023-03-01T14:00:57;5.90;;;4.05;;
18806;SDS011;9531;52.030;4.380;2023-03-01T14:03:28;6.93;;;3.85;;
18806;SDS011;9531;52.030;4.380;2023-03-01T14:05:57;5.65;;;4.00;;
18806;SDS011;9531;52.030;4.380;2023-03-01T14:08:30;6.80;;;3.70;;
18806;SDS011;9531;52.030;4.380;2023-03-01T14:11:04;6.38;;;3.60;;
18806;SDS011;9531;52.030;4.380;2023-03-01T14:13:56;6.32;;;3.55;;
18806;SDS011;9531;52.030;4.380;2023-03-01T14:16:41;6.15;;;3.50;;
18806;SDS011;9531;52.030;4.380;2023-03-01T14:19:16;5.40;;;3.42;;
18806;SDS011;9531;52.030;4.380;2023-03-01T14:21:46;4.80;;;3.30;;
18806;SDS011;9531;52.030;4.380;2023-03-01T14:24:16;5.53;;;3.70;;
18806;SDS011;9531;52.030;4.380;2023-03-01T14:26:46;5.32;;;3.63;;
18806;SDS011;9531;52.030;4.380;2023-03-01T14:29:23;5.45;;;3.67;;
18806;SDS011;9531;52.030;4.380;2023-03-01T14:31:53;4.97;;;3.30;;
18806;SDS011;9531;52.030;4.380;2023-03-01T14:34:20;4.30;;;3.20;;
18806;SDS011;9531;52.030;4.380;2023-03-01T14:36:49;5.35;;;3.95;;
18806;SDS011;9531;52.030;4.380;2023-03-01T14:39:17;6.70;;;3.80;;
18806;SDS011;9531;52.030;4.380;2023-03-01T14:41:46;3.97;;;3.55;;
18806;SDS011;9531;52.030;4.380;2023-03-01T14:44:14;4.40;;;3.05;;
18806;SDS011;9531;52.030;4.380;2023-03-01T14:46:51;4.93;;;3.40;;
18806;SDS011;9531;52.030;4.380;2023-03-01T14:49:24;5.25;;;3.80;;
18806;SDS011;9531;52.030;4.380;2023-03-01T14:51:53;6.78;;;4.43;;
18806;SDS011;9531;52.030;4.380;2023-03-01T14:54:24;7.88;;;4.28;;
18806;SDS011;9531;52.030;4.380;2023-03-01T14:56:57;6.40;;;4.70;;
18806;SDS011;9531;52.030;4.380;2023-03-01T14:59:26;7.35;;;4.90;;
18806;SDS011;9531;52.030;4.380;2023-03-01T15:01:55;6.65;;;4.53;;
18806;SDS011;9531;52.030;4.380;2023-03-01T15:04:26;6.32;;;4.45;;
18806;SDS011;9531;52.030;4.380;2023-03-01T15:06:54;7.00;;;4.47;;
18806;SDS011;9531;52.030;4.380;2023-03-01T15:09:29;5.50;;;4.13;;
18806;SDS011;9531;52.030;4.380;2023-03-01T15:17:52;5.80;;;4.15;;
18806;SDS011;9531;52.030;4.380;2023-03-01T15:20:22;5.60;;;3.53;;
18806;SDS011;9531;52.030;4.380;2023-03-01T15:22:52;5.43;;;3.88;;
18806;SDS011;9531;52.030;4.380;2023-03-01T15:25:27;5.13;;;3.80;;
18806;SDS011;9531;52.030;4.380;2023-03-01T15:27:56;7.18;;;4.00;;
18806;SDS011;9531;52.030;4.380;2023-03-01T15:30:25;6.75;;;3.83;;
18806;SDS011;9531;52.030;4.380;2023-03-01T15:35:55;6.63;;;3.55;;